createdAt,value
2018-02-22T00:00:06.677Z,26.50
2018-02-22T00:01:59.937Z,22.50
2018-02-22T00:02:59.844Z,26.10
2018-02-22T00:04:53.088Z,23.80
2018-02-22T00:05:53.017Z,22.10
2018-02-22T00:07:46.283Z,26.60
2018-02-22T00:08:46.188Z,25.80
2018-02-22T00:10:39.601Z,23.00
2018-02-22T00:11:39.506Z,24.40
2018-02-22T00:13:32.756Z,24.40
2018-02-22T00:14:32.684Z,25.50
2018-02-22T00:16:25.945Z,22.10
2018-02-22T00:17:25.850Z,22.20
2018-02-22T00:19:19.093Z,25.60
2018-02-22T00:20:19.022Z,25.00
2018-02-22T00:22:12.286Z,22.30
2018-02-22T00:23:12.190Z,26.10
2018-02-22T00:25:05.575Z,23.60
2018-02-22T00:26:05.498Z,21.50
2018-02-22T00:27:58.782Z,22.10
2018-02-22T00:28:58.685Z,23.70
2018-02-22T00:30:51.947Z,22.50
2018-02-22T00:31:51.858Z,22.80
2018-02-22T00:33:45.104Z,25.20
2018-02-22T00:34:45.028Z,25.50
2018-02-22T00:36:38.292Z,24.40
2018-02-22T00:37:38.198Z,22.90
2018-02-22T00:39:31.593Z,25.30
2018-02-22T00:40:31.504Z,24.70
2018-02-22T00:42:24.803Z,20.00
2018-02-22T00:43:24.675Z,23.10
2018-02-22T00:45:17.922Z,22.50
2018-02-22T00:46:17.846Z,22.90
2018-02-22T00:48:11.111Z,22.00
2018-02-22T00:49:11.016Z,22.10
2018-02-22T00:51:04.284Z,25.10
2018-02-22T00:52:04.187Z,24.10
2018-02-22T00:53:57.572Z,24.70
2018-02-22T00:54:57.501Z,22.60
2018-02-22T00:56:50.764Z,22.30
2018-02-22T00:57:50.668Z,21.80
2018-02-22T00:59:43.914Z,24.00
2018-02-22T01:00:43.837Z,21.80
2018-02-22T01:02:37.103Z,22.40
2018-02-22T01:03:37.007Z,25.80
2018-02-22T01:05:30.367Z,22.00
2018-02-22T01:06:30.180Z,20.30
2018-02-22T01:08:23.601Z,23.10
2018-02-22T01:09:23.504Z,23.40
2018-02-22T01:11:16.887Z,23.20
2018-02-22T01:12:16.743Z,21.00
2018-02-22T01:14:09.992Z,22.10
2018-02-22T01:15:09.915Z,22.50
2018-02-22T01:17:03.198Z,24.10
2018-02-22T01:18:03.103Z,24.20
2018-02-22T01:19:56.346Z,22.80
2018-02-22T01:20:56.267Z,23.30
2018-02-22T01:22:49.531Z,24.60
2018-02-22T01:23:49.440Z,23.70
2018-02-22T01:25:42.797Z,22.40
2018-02-22T01:26:42.607Z,20.40
2018-02-22T01:28:35.872Z,23.00
2018-02-22T01:29:35.779Z,23.70
2018-02-22T01:31:29.042Z,22.80
2018-02-22T01:32:28.947Z,23.00
2018-02-22T01:34:22.196Z,23.30
2018-02-22T01:35:22.117Z,21.60
2018-02-22T01:37:15.384Z,22.40
2018-02-22T01:38:15.291Z,25.50
2018-02-22T01:40:08.648Z,22.00
2018-02-22T01:41:08.500Z,20.90
2018-02-22T01:43:01.755Z,21.90
2018-02-22T01:44:01.657Z,20.40
2018-02-22T01:45:54.899Z,19.80
2018-02-22T01:46:54.818Z,21.10
2018-02-22T01:48:48.194Z,20.80
2018-02-22T01:49:47.987Z,21.90
2018-02-22T01:51:41.242Z,22.50
2018-02-22T01:52:41.148Z,23.30
2018-02-22T01:54:34.392Z,21.90
2018-02-22T01:55:34.317Z,20.90
2018-02-22T01:57:27.595Z,19.80
2018-02-22T01:58:27.499Z,24.30
2018-02-22T02:00:20.740Z,21.70
2018-02-22T02:01:20.655Z,20.50
2018-02-22T02:03:14.038Z,21.80
2018-02-22T02:04:13.840Z,20.80
2018-02-22T02:06:07.084Z,22.40
2018-02-22T02:07:07.009Z,22.00
2018-02-22T02:09:00.272Z,22.40
2018-02-22T02:10:00.180Z,21.90
2018-02-22T02:11:53.597Z,21.50
2018-02-22T02:12:53.499Z,19.70
2018-02-22T02:14:46.736Z,20.20
2018-02-22T02:15:46.662Z,21.30
2018-02-22T02:17:39.924Z,20.10
2018-02-22T02:18:39.833Z,21.60
2018-02-22T02:20:33.067Z,23.70
2018-02-22T02:21:32.993Z,25.00
2018-02-22T02:23:26.255Z,21.30
2018-02-22T02:24:26.161Z,19.30
2018-02-22T02:26:20.020Z,23.00
2018-02-22T02:27:19.498Z,19.60
2018-02-22T02:29:12.763Z,20.80
2018-02-22T02:30:12.670Z,23.10
2018-02-22T02:32:05.920Z,19.00
2018-02-22T02:33:05.826Z,21.20
2018-02-22T02:34:59.070Z,20.90
2018-02-22T02:35:58.994Z,21.40
2018-02-22T02:37:52.250Z,20.10
2018-02-22T02:38:52.154Z,19.10
2018-02-22T02:40:45.615Z,22.60
2018-02-22T02:41:45.505Z,19.20
2018-02-22T02:43:38.767Z,22.30
2018-02-22T02:44:38.670Z,21.20
2018-02-22T02:46:31.908Z,18.10
2018-02-22T02:47:31.829Z,19.60
2018-02-22T02:49:25.096Z,20.70
2018-02-22T02:50:24.999Z,22.90
2018-02-22T02:52:18.262Z,20.00
2018-02-22T02:53:18.167Z,19.50
2018-02-22T02:55:11.583Z,22.20
2018-02-22T02:56:11.505Z,21.50
2018-02-22T02:58:04.772Z,20.70
2018-02-22T02:59:04.678Z,21.70
2018-02-22T03:00:58.043Z,24.00
2018-02-22T03:01:57.847Z,20.20
2018-02-22T03:03:51.111Z,20.10
2018-02-22T03:04:51.026Z,20.50
2018-02-22T03:06:44.263Z,21.40
2018-02-22T03:07:44.188Z,21.10
2018-02-22T03:09:37.601Z,17.90
2018-02-22T03:10:37.503Z,21.10
2018-02-22T03:12:30.778Z,20.50
2018-02-22T03:13:30.670Z,20.80
2018-02-22T03:15:23.919Z,19.50
2018-02-22T03:16:23.846Z,19.40
2018-02-22T03:18:17.106Z,19.90
2018-02-22T03:19:17.012Z,20.20
2018-02-22T03:21:10.372Z,22.90
2018-02-22T03:22:10.169Z,19.20
2018-02-22T03:24:03.598Z,20.80
2018-02-22T03:25:03.503Z,19.80
2018-02-22T03:26:56.752Z,19.90
2018-02-22T03:27:56.673Z,18.50
2018-02-22T03:29:49.950Z,21.00
2018-02-22T03:30:49.854Z,19.70
2018-02-22T03:32:43.229Z,20.80
2018-02-22T03:33:43.023Z,23.10
2018-02-22T03:35:36.267Z,20.40
2018-02-22T03:36:36.190Z,21.40
2018-02-22T03:38:29.595Z,20.20
2018-02-22T03:39:29.500Z,18.70
2018-02-22T03:41:22.744Z,24.00
2018-02-22T03:42:22.673Z,19.70
2018-02-22T03:44:15.934Z,19.90
2018-02-22T03:45:15.836Z,21.00
2018-02-22T03:47:09.084Z,22.10
2018-02-22T03:48:09.011Z,22.40
2018-02-22T03:50:02.267Z,18.20
2018-02-22T03:51:02.170Z,21.20
2018-02-22T03:52:55.426Z,23.20
2018-02-22T03:53:55.329Z,21.20
2018-02-22T03:55:48.575Z,19.80
2018-02-22T03:56:48.497Z,22.40
2018-02-22T03:58:41.764Z,20.70
2018-02-22T03:59:41.666Z,23.50
2018-02-22T04:01:34.916Z,21.10
2018-02-22T04:02:35.516Z,24.50
2018-02-22T04:04:28.103Z,18.50
2018-02-22T04:05:28.005Z,19.80
2018-02-22T04:07:21.250Z,19.90
2018-02-22T04:08:21.174Z,20.70
2018-02-22T04:10:14.595Z,21.70
2018-02-22T04:11:14.500Z,21.50
2018-02-22T04:13:07.757Z,21.60
2018-02-22T04:14:07.662Z,22.00
2018-02-22T04:16:00.907Z,20.50
2018-02-22T04:17:00.833Z,18.10
2018-02-22T04:18:54.097Z,20.20
2018-02-22T04:19:54.002Z,22.80
2018-02-22T04:21:47.359Z,21.90
2018-02-22T04:22:47.169Z,21.50
2018-02-22T04:24:40.598Z,20.50
2018-02-22T04:25:40.501Z,21.80
2018-02-22T04:27:33.748Z,20.10
2018-02-22T04:28:33.671Z,20.80
2018-02-22T04:30:26.930Z,20.50
2018-02-22T04:31:26.832Z,20.40
2018-02-22T04:33:20.211Z,22.00
2018-02-22T04:34:20.039Z,22.50
2018-02-22T04:36:13.246Z,20.00
2018-02-22T04:37:13.171Z,20.50
2018-02-22T04:39:06.600Z,20.10
2018-02-22T04:40:06.501Z,22.80
2018-02-22T04:41:59.747Z,21.00
2018-02-22T04:42:59.672Z,21.10
2018-02-22T04:44:52.935Z,19.80
2018-02-22T04:45:52.841Z,19.80
2018-02-22T04:47:46.200Z,18.30
2018-02-22T04:48:46.009Z,19.40
2018-02-22T04:50:39.260Z,18.70
2018-02-22T04:51:39.171Z,19.30
2018-02-22T04:53:32.439Z,19.60
2018-02-22T04:54:32.342Z,18.80
2018-02-22T04:56:25.584Z,19.80
2018-02-22T04:57:25.508Z,19.40
2018-02-22T04:59:18.773Z,19.50
2018-02-22T05:00:18.677Z,19.40
2018-02-22T05:02:11.922Z,21.30
2018-02-22T05:03:11.846Z,19.70
2018-02-22T05:05:05.116Z,19.70
2018-02-22T05:06:05.017Z,20.60
2018-02-22T05:07:58.269Z,19.80
2018-02-22T05:08:58.196Z,17.20
2018-02-22T05:10:51.602Z,20.30
2018-02-22T05:11:51.507Z,20.40
2018-02-22T05:13:44.772Z,21.20
2018-02-22T05:14:44.676Z,19.50
2018-02-22T05:16:37.928Z,21.10
2018-02-22T05:17:37.846Z,21.30
2018-02-22T05:19:31.112Z,19.10
2018-02-22T05:20:31.016Z,17.90
2018-02-22T05:22:24.260Z,20.50
2018-02-22T05:23:24.184Z,19.90
2018-02-22T05:25:17.591Z,19.70
2018-02-22T05:26:17.496Z,20.20
2018-02-22T05:28:10.739Z,18.60
2018-02-22T05:29:10.663Z,19.20
2018-02-22T05:31:04.044Z,20.20
2018-02-22T05:32:03.830Z,21.70
2018-02-22T05:33:57.210Z,18.90
2018-02-22T05:34:57.000Z,19.20
2018-02-22T05:36:50.361Z,18.80
2018-02-22T05:37:50.200Z,19.60
2018-02-22T05:39:43.599Z,20.20
2018-02-22T05:40:43.500Z,19.90
2018-02-22T05:42:36.749Z,19.60
2018-02-22T05:43:36.672Z,22.00
2018-02-22T05:45:29.932Z,19.50
2018-02-22T05:46:29.836Z,21.50
2018-02-22T05:48:23.085Z,20.90
2018-02-22T05:49:23.007Z,23.30
2018-02-22T05:51:16.281Z,21.50
2018-02-22T05:52:16.192Z,21.90
2018-02-22T05:54:09.597Z,20.90
2018-02-22T05:55:09.502Z,23.10
2018-02-22T05:57:02.743Z,20.60
2018-02-22T05:58:02.671Z,19.50
2018-02-22T05:59:55.922Z,19.50
2018-02-22T06:00:55.832Z,20.20
2018-02-22T06:02:49.187Z,21.90
2018-02-22T06:03:49.000Z,22.70
2018-02-22T06:05:42.265Z,21.60
2018-02-22T06:06:42.167Z,20.30
2018-02-22T06:08:35.574Z,23.10
2018-02-22T06:09:35.509Z,20.70
2018-02-22T06:11:28.771Z,21.90
2018-02-22T06:12:28.679Z,21.40
2018-02-22T06:14:22.054Z,18.60
2018-02-22T06:15:21.848Z,24.40
2018-02-22T06:17:15.092Z,23.40
2018-02-22T06:18:15.016Z,23.80
2018-02-22T06:20:08.270Z,20.40
2018-02-22T06:21:08.174Z,21.10
2018-02-22T06:23:01.427Z,23.00
2018-02-22T06:24:01.348Z,21.60
2018-02-22T06:25:54.609Z,21.10
2018-02-22T06:26:54.523Z,20.20
2018-02-22T06:28:47.763Z,21.50
2018-02-22T06:29:47.685Z,23.80
2018-02-22T06:31:40.954Z,23.30
2018-02-22T06:32:40.852Z,22.70
2018-02-22T06:34:34.140Z,22.10
2018-02-22T06:35:34.049Z,21.80
2018-02-22T06:37:27.402Z,22.80
2018-02-22T06:38:27.231Z,21.70
2018-02-22T06:40:20.595Z,22.70
2018-02-22T06:41:20.497Z,22.20
2018-02-22T06:43:13.740Z,22.20
2018-02-22T06:44:13.666Z,18.60
2018-02-22T06:46:06.932Z,21.70
2018-02-22T06:47:06.834Z,23.20
2018-02-22T06:49:00.082Z,23.00
2018-02-22T06:50:00.008Z,25.90
2018-02-22T06:51:53.267Z,23.90
2018-02-22T06:52:53.179Z,22.90
2018-02-22T06:54:46.589Z,27.30
2018-02-22T06:55:46.492Z,25.60
2018-02-22T06:57:40.727Z,26.70
2018-02-22T06:58:40.651Z,23.50
2018-02-22T07:00:34.909Z,25.30
2018-02-22T07:01:34.811Z,25.90
2018-02-22T07:03:28.055Z,26.20
2018-02-22T07:04:27.981Z,28.80
2018-02-22T07:06:21.250Z,26.60
2018-02-22T07:07:21.152Z,25.00
2018-02-22T07:09:15.010Z,24.40
2018-02-22T07:10:14.497Z,24.60
2018-02-22T07:12:07.764Z,26.70
2018-02-22T07:13:07.668Z,23.50
2018-02-22T07:15:00.930Z,22.60
2018-02-22T07:16:00.833Z,22.80
2018-02-22T07:17:54.085Z,25.30
2018-02-22T07:18:54.006Z,22.20
2018-02-22T07:20:47.262Z,22.40
2018-02-22T07:21:47.168Z,20.50
2018-02-22T07:23:40.410Z,20.70
2018-02-22T07:24:40.333Z,20.60
2018-02-22T07:26:33.597Z,20.70
2018-02-22T07:27:33.502Z,22.10
2018-02-22T07:29:26.747Z,23.80
2018-02-22T07:30:26.676Z,19.30
2018-02-22T07:32:19.936Z,21.30
2018-02-22T07:33:19.840Z,22.00
2018-02-22T07:35:13.105Z,21.60
2018-02-22T07:36:13.010Z,22.30
2018-02-22T07:38:06.255Z,24.20
2018-02-22T07:39:06.178Z,26.40
2018-02-22T07:40:59.594Z,23.50
2018-02-22T07:41:59.499Z,24.10
2018-02-22T07:43:52.742Z,24.80
2018-02-22T07:44:52.666Z,22.70
2018-02-22T07:46:46.045Z,21.70
2018-02-22T07:47:45.845Z,21.20
2018-02-22T07:49:39.089Z,21.90
2018-02-22T07:50:39.014Z,23.10
2018-02-22T07:52:32.280Z,25.30
2018-02-22T07:53:32.233Z,21.40
2018-02-22T07:55:25.594Z,24.10
2018-02-22T07:56:25.499Z,22.10
2018-02-22T07:58:18.744Z,27.50
2018-02-22T07:59:18.667Z,29.30
2018-02-22T08:01:12.047Z,24.20
2018-02-22T08:02:11.842Z,23.50
2018-02-22T08:04:05.085Z,28.70
2018-02-22T08:05:05.010Z,24.40
2018-02-22T08:06:58.284Z,25.30
2018-02-22T08:07:58.179Z,23.30
2018-02-22T08:09:51.446Z,24.50
2018-02-22T08:10:51.372Z,22.30
2018-02-22T08:12:44.652Z,22.70
2018-02-22T08:13:44.553Z,21.10
2018-02-22T08:15:37.819Z,22.80
2018-02-22T08:16:37.723Z,21.80
2018-02-22T08:18:30.969Z,24.60
2018-02-22T08:19:30.892Z,25.60
2018-02-22T08:21:24.270Z,22.40
2018-02-22T08:22:24.054Z,19.90
2018-02-22T08:24:17.412Z,23.00
2018-02-22T08:25:17.335Z,21.00
2018-02-22T08:27:10.599Z,23.50
2018-02-22T08:28:10.504Z,22.20
2018-02-22T08:30:03.744Z,22.10
2018-02-22T08:31:03.669Z,20.80
2018-02-22T08:32:56.925Z,21.30
2018-02-22T08:33:56.824Z,22.10
2018-02-22T08:35:50.085Z,21.10
2018-02-22T08:36:49.992Z,22.70
2018-02-22T08:38:43.228Z,20.90
2018-02-22T08:39:43.153Z,22.10
2018-02-22T08:41:36.418Z,21.60
2018-02-22T08:42:36.326Z,20.50
2018-02-22T08:44:29.685Z,21.60
2018-02-22T08:45:29.485Z,22.80
2018-02-22T08:47:22.741Z,20.50
2018-02-22T08:48:22.667Z,20.80
2018-02-22T08:50:15.886Z,22.60
2018-02-22T08:51:15.811Z,21.00
2018-02-22T08:53:09.120Z,21.90
2018-02-22T08:54:09.027Z,21.60
2018-02-22T08:56:02.316Z,23.70
2018-02-22T08:57:02.194Z,23.00
2018-02-22T08:58:55.432Z,24.60
2018-02-22T08:59:55.361Z,23.20
2018-02-22T09:01:48.633Z,23.30
2018-02-22T09:02:48.540Z,21.70
2018-02-22T09:04:41.796Z,21.30
2018-02-22T09:05:41.722Z,21.90
2018-02-22T09:07:34.992Z,20.70
2018-02-22T09:08:34.899Z,21.20
2018-02-22T09:10:28.157Z,21.50
2018-02-22T09:11:28.077Z,19.90
2018-02-22T09:13:21.433Z,23.90
2018-02-22T09:14:21.342Z,20.90
2018-02-22T09:16:14.725Z,21.40
2018-02-22T09:17:14.524Z,19.90
2018-02-22T09:19:07.779Z,21.00
2018-02-22T09:20:07.709Z,21.40
2018-02-22T09:22:00.979Z,20.90
2018-02-22T09:23:00.895Z,23.00
2018-02-22T09:24:54.148Z,24.10
2018-02-22T09:25:54.079Z,22.20
2018-02-22T09:27:47.440Z,23.80
2018-02-22T09:28:47.344Z,21.10
2018-02-22T09:30:40.602Z,18.70
2018-02-22T09:31:40.532Z,19.70
2018-02-22T09:33:33.919Z,20.60
2018-02-22T09:34:33.719Z,17.60
2018-02-22T09:36:27.004Z,20.70
2018-02-22T09:37:26.905Z,20.00
2018-02-22T09:39:20.153Z,22.40
2018-02-22T09:40:20.086Z,21.40
2018-02-22T09:42:13.436Z,19.60
2018-02-22T09:43:13.348Z,20.70
2018-02-22T09:45:06.600Z,20.90
2018-02-22T09:46:06.529Z,19.30
2018-02-22T09:47:59.794Z,17.90
2018-02-22T09:48:59.707Z,17.50
2018-02-22T09:50:53.073Z,20.80
2018-02-22T09:51:52.949Z,17.70
2018-02-22T09:53:46.153Z,16.00
2018-02-22T09:54:46.064Z,16.20
2018-02-22T09:56:39.437Z,18.30
2018-02-22T09:57:39.348Z,16.70
2018-02-22T09:59:32.599Z,18.60
2018-02-22T10:00:32.527Z,17.70
2018-02-22T10:02:25.794Z,15.70
2018-02-22T10:03:25.708Z,19.30
2018-02-22T10:05:18.953Z,15.40
2018-02-22T10:06:18.886Z,14.70
2018-02-22T10:08:12.273Z,15.00
2018-02-22T10:09:12.062Z,12.70
2018-02-22T10:11:05.415Z,11.80
2018-02-22T10:12:05.344Z,11.80
2018-02-22T10:13:58.729Z,14.60
2018-02-22T10:14:58.520Z,13.70
2018-02-22T10:16:51.791Z,13.60
2018-02-22T10:17:51.700Z,10.90
2018-02-22T10:19:44.950Z,11.60
2018-02-22T10:20:44.881Z,14.60
2018-02-22T10:22:38.148Z,12.60
2018-02-22T10:23:38.062Z,15.30
2018-02-22T10:25:31.432Z,14.50
2018-02-22T10:26:31.350Z,18.90
2018-02-22T10:28:24.625Z,11.00
2018-02-22T10:29:24.536Z,13.50
2018-02-22T10:31:17.794Z,12.30
2018-02-22T10:32:17.727Z,11.80
2018-02-22T10:34:11.003Z,11.10
2018-02-22T10:35:10.915Z,11.20
2018-02-22T10:37:04.182Z,9.90
2018-02-22T10:38:04.093Z,11.80
2018-02-22T10:39:57.348Z,11.00
2018-02-22T10:40:57.278Z,12.60
2018-02-22T10:42:50.547Z,10.10
2018-02-22T10:43:50.457Z,12.60
2018-02-22T10:45:43.705Z,11.90
2018-02-22T10:46:43.633Z,9.80
2018-02-22T10:48:37.758Z,22.60
2018-02-22T10:49:37.673Z,10.10
2018-02-22T10:51:30.930Z,10.50
2018-02-22T10:52:30.854Z,10.50
2018-02-22T10:54:24.135Z,9.70
2018-02-22T10:55:24.048Z,9.10
2018-02-22T10:57:17.433Z,8.50
2018-02-22T10:58:17.345Z,9.30
2018-02-22T11:00:10.594Z,12.20
2018-02-22T11:01:10.525Z,10.90
2018-02-22T11:03:03.802Z,10.10
2018-02-22T11:04:03.715Z,10.80
2018-02-22T11:05:56.970Z,11.00
2018-02-22T11:06:56.901Z,9.90
2018-02-22T11:08:50.178Z,11.60
2018-02-22T11:09:50.088Z,10.10
2018-02-22T11:11:43.416Z,10.50
2018-02-22T11:12:43.343Z,12.80
2018-02-22T11:14:36.703Z,9.50
2018-02-22T11:15:36.532Z,10.70
2018-02-22T11:17:29.807Z,11.70
2018-02-22T11:18:29.726Z,9.20
2018-02-22T11:20:22.983Z,11.70
2018-02-22T11:21:22.914Z,11.00
2018-02-22T11:23:16.187Z,12.40
2018-02-22T11:24:16.099Z,13.60
2018-02-22T11:26:09.413Z,10.10
2018-02-22T11:27:09.344Z,10.10
2018-02-22T11:29:02.727Z,10.30
2018-02-22T11:30:02.528Z,11.00
2018-02-22T11:31:55.781Z,11.30
2018-02-22T11:32:55.712Z,12.20
2018-02-22T11:34:48.984Z,9.60
2018-02-22T11:35:48.894Z,8.30
2018-02-22T11:37:42.167Z,10.10
2018-02-22T11:38:42.075Z,10.20
2018-02-22T11:40:35.416Z,10.10
2018-02-22T11:41:35.343Z,9.50
2018-02-22T11:43:28.724Z,12.30
2018-02-22T11:44:28.530Z,10.10
2018-02-22T11:46:21.778Z,9.30
2018-02-22T11:47:21.705Z,16.50
2018-02-22T11:49:14.977Z,9.70
2018-02-22T11:50:14.886Z,8.60
2018-02-22T11:52:08.250Z,10.90
2018-02-22T11:53:08.073Z,10.40
2018-02-22T11:55:01.433Z,9.80
2018-02-22T11:56:01.343Z,7.90
2018-02-22T11:57:54.612Z,8.70
2018-02-22T11:58:54.520Z,8.80
2018-02-22T12:00:47.762Z,10.90
2018-02-22T12:01:47.689Z,12.40
2018-02-22T12:03:40.960Z,10.50
2018-02-22T12:04:40.865Z,11.50
2018-02-22T12:06:34.104Z,11.50
2018-02-22T12:07:34.034Z,11.60
2018-02-22T12:09:27.431Z,17.50
2018-02-22T12:10:27.337Z,9.50
2018-02-22T12:12:20.588Z,11.00
2018-02-22T12:13:20.512Z,11.40
2018-02-22T12:15:13.783Z,13.20
2018-02-22T12:16:13.691Z,11.80
2018-02-22T12:18:07.866Z,10.70
2018-02-22T12:19:07.775Z,12.40
2018-02-22T12:21:01.015Z,11.20
2018-02-22T12:22:00.949Z,10.60
2018-02-22T12:23:54.205Z,12.60
2018-02-22T12:24:54.112Z,13.90
2018-02-22T12:26:47.410Z,11.10
2018-02-22T12:27:47.337Z,12.30
2018-02-22T12:29:40.599Z,12.20
2018-02-22T12:30:40.507Z,12.10
2018-02-22T12:32:33.766Z,12.20
2018-02-22T12:33:33.676Z,10.80
2018-02-22T12:35:26.937Z,11.40
2018-02-22T12:36:26.843Z,11.50
2018-02-22T12:38:20.225Z,12.10
2018-02-22T12:39:20.023Z,14.20
2018-02-22T12:41:13.414Z,11.00
2018-02-22T12:42:13.339Z,12.60
2018-02-22T12:44:06.619Z,11.90
2018-02-22T12:45:06.518Z,12.00
2018-02-22T12:46:59.779Z,11.50
2018-02-22T12:47:59.701Z,12.90
2018-02-22T12:49:52.964Z,13.50
2018-02-22T12:50:52.871Z,11.00
2018-02-22T12:52:46.158Z,10.00
2018-02-22T12:53:46.055Z,10.70
2018-02-22T12:55:39.417Z,11.00
2018-02-22T12:56:39.337Z,12.20
2018-02-22T12:58:32.607Z,15.20
2018-02-22T12:59:32.518Z,13.20
2018-02-22T13:01:25.766Z,12.90
2018-02-22T13:02:25.699Z,13.50
2018-02-22T13:04:18.972Z,11.20
2018-02-22T13:05:18.876Z,11.20
2018-02-22T13:07:12.127Z,12.40
2018-02-22T13:08:12.056Z,10.90
2018-02-22T13:10:05.430Z,13.10
2018-02-22T13:11:05.336Z,12.90
2018-02-22T13:12:58.717Z,14.10
2018-02-22T13:13:58.606Z,13.60
2018-02-22T13:15:51.855Z,13.90
2018-02-22T13:16:51.781Z,13.00
2018-02-22T13:18:46.163Z,14.30
2018-02-22T13:19:45.962Z,13.90
2018-02-22T13:21:39.325Z,16.40
2018-02-22T13:22:39.141Z,14.00
2018-02-22T13:24:32.401Z,14.50
2018-02-22T13:25:32.319Z,15.70
2018-02-22T13:27:25.551Z,14.80
2018-02-22T13:28:25.475Z,14.90
2018-02-22T13:30:18.299Z,16.90
2018-02-22T13:31:18.206Z,15.90
2018-02-22T13:33:11.471Z,16.60
2018-02-22T13:34:11.372Z,15.60
2018-02-22T13:36:04.733Z,17.00
2018-02-22T13:37:04.594Z,16.70
2018-02-22T13:38:57.856Z,19.90
2018-02-22T13:39:57.746Z,18.40
2018-02-22T13:41:50.991Z,18.90
2018-02-22T13:42:50.916Z,21.10
2018-02-22T13:44:44.188Z,15.20
2018-02-22T13:45:44.096Z,17.70
2018-02-22T13:47:37.412Z,18.40
2018-02-22T13:48:37.335Z,18.60
2018-02-22T13:50:30.614Z,21.10
2018-02-22T13:51:30.514Z,20.00
2018-02-22T13:53:23.785Z,19.50
2018-02-22T13:54:23.693Z,19.10
2018-02-22T13:56:16.945Z,18.50
2018-02-22T13:57:16.872Z,17.10
2018-02-22T13:59:10.146Z,19.60
2018-02-22T14:00:10.050Z,18.70
2018-02-22T14:02:03.413Z,21.50
2018-02-22T14:03:03.334Z,21.20
2018-02-22T14:04:56.612Z,19.90
2018-02-22T14:05:56.509Z,21.60
2018-02-22T14:07:49.875Z,20.70
2018-02-22T14:08:49.682Z,20.30
2018-02-22T14:10:42.944Z,19.10
2018-02-22T14:11:42.853Z,22.00
2018-02-22T14:13:36.115Z,23.70
2018-02-22T14:14:36.023Z,22.70
2018-02-22T14:16:29.384Z,21.00
2018-02-22T14:17:29.189Z,18.10
2018-02-22T14:19:22.460Z,15.70
2018-02-22T14:20:22.371Z,16.80
2018-02-22T14:22:15.734Z,16.50
2018-02-22T14:23:15.535Z,19.50
2018-02-22T14:25:08.796Z,17.90
2018-02-22T14:26:08.703Z,20.00
2018-02-22T14:28:01.945Z,15.60
2018-02-22T14:29:01.872Z,17.60
2018-02-22T14:30:55.268Z,17.30
2018-02-22T14:31:55.049Z,17.60
2018-02-22T14:33:48.469Z,19.10
2018-02-22T14:34:48.213Z,18.30
2018-02-22T14:36:41.452Z,16.60
2018-02-22T14:37:41.378Z,17.60
2018-02-22T14:39:34.640Z,14.00
2018-02-22T14:40:34.549Z,14.10
2018-02-22T14:42:27.794Z,15.90
2018-02-22T14:43:27.726Z,15.40
2018-02-22T14:45:20.988Z,18.80
2018-02-22T14:46:20.895Z,17.00
2018-02-22T14:48:14.138Z,17.50
2018-02-22T14:49:14.066Z,16.60
2018-02-22T14:51:07.428Z,14.70
2018-02-22T14:52:07.339Z,14.50
2018-02-22T14:54:00.795Z,15.30
2018-02-22T14:55:00.550Z,14.30
2018-02-22T14:56:53.866Z,17.30
2018-02-22T14:57:53.685Z,14.90
2018-02-22T14:59:46.994Z,16.50
2018-02-22T15:00:46.900Z,16.60
2018-02-22T15:02:40.150Z,15.10
2018-02-22T15:03:40.079Z,13.30
2018-02-22T15:05:33.429Z,16.50
2018-02-22T15:06:33.334Z,16.00
2018-02-22T15:08:26.668Z,17.10
2018-02-22T15:09:26.504Z,13.20
2018-02-22T15:11:20.087Z,15.20
2018-02-22T15:12:19.894Z,15.10
2018-02-22T15:14:12.615Z,14.20
2018-02-22T15:15:12.430Z,13.50
2018-02-22T15:17:05.659Z,13.80
2018-02-22T15:18:05.580Z,13.30
2018-02-22T15:19:58.977Z,14.40
2018-02-22T15:20:58.751Z,15.20
2018-02-22T15:22:51.991Z,14.50
2018-02-22T15:23:51.925Z,13.40
2018-02-22T15:25:45.306Z,16.60
2018-02-22T15:26:45.098Z,14.90
2018-02-22T15:28:38.382Z,15.10
2018-02-22T15:29:38.408Z,14.50
2018-02-22T15:31:32.643Z,17.00
2018-02-22T15:32:32.427Z,14.40
2018-02-22T15:34:25.897Z,12.60
2018-02-22T15:35:25.774Z,14.80
2018-02-22T15:37:19.025Z,13.50
2018-02-22T15:38:18.989Z,13.90
2018-02-22T15:40:12.325Z,14.50
2018-02-22T15:41:12.114Z,14.30
2018-02-22T15:43:05.988Z,13.60
2018-02-22T15:44:05.344Z,13.20
2018-02-22T15:45:58.723Z,15.70
2018-02-22T15:46:58.499Z,15.30
2018-02-22T15:48:53.271Z,16.70
2018-02-22T15:49:51.875Z,16.00
2018-02-22T15:51:45.257Z,12.10
2018-02-22T15:52:45.165Z,14.20
2018-02-22T15:54:38.800Z,15.40
2018-02-22T15:55:38.245Z,13.30
2018-02-22T15:57:31.480Z,16.00
2018-02-22T15:58:31.407Z,15.40
2018-02-22T16:00:24.940Z,17.00
2018-02-22T16:01:24.769Z,17.40
2018-02-22T16:03:18.024Z,14.00
2018-02-22T16:04:17.948Z,13.90
2018-02-22T16:06:11.435Z,14.70
2018-02-22T16:07:11.182Z,15.50
2018-02-22T16:09:04.504Z,13.50
2018-02-22T16:10:04.417Z,15.20
2018-02-22T16:11:57.214Z,13.10
2018-02-22T16:12:57.121Z,12.90
2018-02-22T16:14:50.013Z,14.40
2018-02-22T16:15:49.932Z,15.70
2018-02-22T16:17:43.217Z,16.10
2018-02-22T16:18:43.151Z,15.20
2018-02-22T16:20:36.392Z,15.30
2018-02-22T16:21:36.298Z,13.00
2018-02-22T16:23:29.537Z,16.90
2018-02-22T16:24:29.465Z,15.20
2018-02-22T16:26:22.724Z,17.00
2018-02-22T16:27:22.627Z,15.80
2018-02-22T16:29:15.869Z,17.20
2018-02-22T16:30:15.793Z,14.90
2018-02-22T16:32:09.177Z,15.10
2018-02-22T16:33:08.959Z,14.50
2018-02-22T16:35:02.282Z,13.70
2018-02-22T16:36:02.127Z,15.60
2018-02-22T16:37:55.468Z,16.10
2018-02-22T16:38:55.338Z,17.00
2018-02-22T16:40:48.601Z,16.30
2018-02-22T16:41:48.507Z,16.20
2018-02-22T16:43:41.747Z,17.20
2018-02-22T16:44:41.674Z,15.80
2018-02-22T16:46:34.942Z,17.00
2018-02-22T16:47:34.847Z,18.50
2018-02-22T16:49:28.087Z,17.40
2018-02-22T16:50:28.010Z,16.30
2018-02-22T16:52:21.275Z,18.20
2018-02-22T16:53:21.176Z,20.00
2018-02-22T16:55:14.539Z,21.60
2018-02-22T16:56:14.351Z,18.60
2018-02-22T16:58:07.610Z,16.80
2018-02-22T16:59:07.517Z,18.20
2018-02-22T17:01:00.899Z,18.20
2018-02-22T17:02:00.681Z,19.20
2018-02-22T17:03:53.918Z,17.20
2018-02-22T17:04:53.847Z,17.00
2018-02-22T17:06:47.107Z,22.80
2018-02-22T17:07:47.009Z,17.40
2018-02-22T17:09:40.255Z,20.30
2018-02-22T17:10:40.181Z,17.50
2018-02-22T17:12:33.440Z,18.10
2018-02-22T17:13:33.348Z,18.60
2018-02-22T17:15:26.586Z,19.20
2018-02-22T17:16:26.508Z,20.50
2018-02-22T17:18:19.769Z,20.40
2018-02-22T17:19:19.674Z,18.60
2018-02-22T17:21:12.932Z,19.20
2018-02-22T17:22:12.837Z,18.00
2018-02-22T17:24:06.100Z,18.30
2018-02-22T17:25:06.052Z,19.20
2018-02-22T17:26:59.292Z,16.70
2018-02-22T17:27:59.189Z,16.50
2018-02-22T17:29:52.437Z,19.60
2018-02-22T17:30:52.358Z,18.40
2018-02-22T17:32:45.622Z,21.20
2018-02-22T17:33:45.529Z,20.60
2018-02-22T17:35:38.887Z,17.50
2018-02-22T17:36:39.309Z,17.10
2018-02-22T17:38:31.987Z,18.00
2018-02-22T17:39:31.853Z,19.80
2018-02-22T17:41:25.233Z,20.60
2018-02-22T17:42:25.014Z,21.20
2018-02-22T17:44:18.254Z,18.60
2018-02-22T17:45:18.179Z,19.10
2018-02-22T17:47:11.560Z,23.00
2018-02-22T17:48:11.416Z,19.90
2018-02-22T17:50:04.631Z,17.00
2018-02-22T17:51:04.513Z,16.20
2018-02-22T17:52:57.768Z,18.80
2018-02-22T17:53:57.742Z,20.80
2018-02-22T17:55:50.914Z,17.40
2018-02-22T17:56:50.839Z,17.50
2018-02-22T17:58:44.204Z,17.30
2018-02-22T17:59:44.003Z,19.20
2018-02-22T18:01:37.522Z,21.20
2018-02-22T18:02:37.337Z,21.60
2018-02-22T18:04:30.577Z,17.80
2018-02-22T18:05:30.505Z,17.50
2018-02-22T18:07:23.979Z,22.50
2018-02-22T18:08:23.667Z,21.70
2018-02-22T18:10:16.916Z,16.60
2018-02-22T18:11:16.851Z,17.40
2018-02-22T18:13:10.109Z,18.60
2018-02-22T18:14:10.015Z,21.20
2018-02-22T18:16:03.434Z,18.70
2018-02-22T18:17:03.189Z,20.20
2018-02-22T18:18:56.460Z,19.10
2018-02-22T18:19:56.364Z,19.50
2018-02-22T18:21:49.631Z,16.50
2018-02-22T18:22:50.140Z,18.00
2018-02-22T18:24:42.786Z,18.60
2018-02-22T18:25:42.710Z,18.60
2018-02-22T18:27:35.971Z,19.40
2018-02-22T18:28:35.874Z,19.60
2018-02-22T18:30:29.216Z,19.10
2018-02-22T18:31:29.038Z,17.40
2018-02-22T18:33:22.301Z,20.60
2018-02-22T18:34:22.199Z,19.60
2018-02-22T18:36:15.481Z,19.70